Time;durP1;ratioP1;P1;durP2;ratioP2;P2;SDS_P1;SDS_P2;PMS_P1;PMS_P2;Temp;Humidity;BMP_temperature;BMP_pressure;BME280_temperature;BME280_humidity;BME280_pressure;Samples;Min_cycle;Max_cycle;Signal;HPM_P1;HPM_P2
2022/11/24 00:01:33;;;;;;;3.67;2.33;;;6.30;99.90;;;;;;5064790;28;20029;-30
2022/11/24 00:04:01;;;;;;;1.85;1.75;;;6.30;99.90;;;;;;5039525;28;20038;-30
2022/11/24 00:06:28;;;;;;;2.38;2.28;;;6.30;99.90;;;;;;5045349;28;20032;-30
2022/11/24 00:08:54;;;;;;;1.88;1.77;;;6.40;99.90;;;;;;5037623;28;20046;-31
2022/11/24 00:11:23;;;;;;;1.95;1.33;;;6.40;99.90;;;;;;5038953;28;20059;-33
2022/11/24 00:13:49;;;;;;;1.38;1.30;;;6.40;99.90;;;;;;5049331;28;20059;-31
2022/11/24 00:16:26;;;;;;;2.95;2.28;;;6.50;99.90;;;;;;5046068;28;20386;-30
2022/11/24 00:18:54;;;;;;;2.05;1.50;;;6.50;99.90;;;;;;5049674;28;20039;-33
2022/11/24 00:21:20;;;;;;;2.07;1.93;;;6.50;99.90;;;;;;5048257;28;20029;-30
2022/11/24 00:23:47;;;;;;;2.67;1.85;;;6.50;99.90;;;;;;5051237;28;20624;-30
2022/11/24 00:26:18;;;;;;;1.77;1.33;;;6.50;99.90;;;;;;5045225;28;20033;-31
2022/11/24 00:28:45;;;;;;;3.90;2.17;;;6.50;99.90;;;;;;5048060;28;20037;-31
2022/11/24 00:31:15;;;;;;;3.83;2.50;;;6.50;99.90;;;;;;5042325;28;20043;-31
2022/11/24 00:33:41;;;;;;;1.30;0.88;;;6.50;99.90;;;;;;5047304;28;20040;-32
2022/11/24 00:36:07;;;;;;;3.40;1.67;;;6.50;99.90;;;;;;5046727;28;20041;-30
2022/11/24 00:38:32;;;;;;;1.95;1.85;;;6.40;99.90;;;;;;5046612;28;20029;-30
2022/11/24 00:40:58;;;;;;;3.65;1.73;;;6.50;99.90;;;;;;5044502;28;20029;-32
2022/11/24 00:43:24;;;;;;;4.10;1.85;;;6.50;99.90;;;;;;5041088;28;20032;-31
2022/11/24 00:45:49;;;;;;;1.48;1.15;;;6.50;99.90;;;;;;5044720;28;20150;-30
2022/11/24 00:48:15;;;;;;;4.28;1.95;;;6.50;99.90;;;;;;5050907;28;20091;-30
2022/11/24 00:50:41;;;;;;;4.97;2.00;;;6.60;99.90;;;;;;5042638;28;20029;-34
2022/11/24 00:53:06;;;;;;;2.17;1.73;;;6.50;99.90;;;;;;5044040;28;20524;-30
2022/11/24 00:55:32;;;;;;;4.57;2.63;;;6.50;99.90;;;;;;5035125;28;20465;-31
2022/11/24 00:57:57;;;;;;;1.80;1.70;;;6.40;99.90;;;;;;5037175;28;20100;-32
2022/11/24 01:00:23;;;;;;;2.38;2.17;;;6.30;99.90;;;;;;5040132;28;20287;-34
2022/11/24 01:02:48;;;;;;;2.67;1.40;;;6.30;99.90;;;;;;5045204;28;20037;-31
2022/11/24 01:05:14;;;;;;;2.30;1.98;;;6.20;99.90;;;;;;5047269;28;20104;-31
2022/11/24 01:07:39;;;;;;;2.45;1.75;;;6.20;99.90;;;;;;5047613;28;20478;-30
2022/11/24 01:10:05;;;;;;;4.30;2.13;;;6.20;99.90;;;;;;5048474;28;20033;-31
2022/11/24 01:12:31;;;;;;;1.83;1.73;;;6.30;99.90;;;;;;5046049;28;20041;-31
2022/11/24 01:14:57;;;;;;;6.32;3.30;;;6.30;99.90;;;;;;5046567;28;20394;-31
2022/11/24 01:17:23;;;;;;;3.70;2.10;;;6.40;99.90;;;;;;5050660;28;20032;-32
2022/11/24 01:19:49;;;;;;;2.15;2.05;;;6.30;99.90;;;;;;5045715;28;20029;-30
2022/11/24 01:22:15;;;;;;;1.00;1.00;;;6.40;99.90;;;;;;5049466;28;20031;-34
2022/11/24 01:24:41;;;;;;;2.15;1.35;;;6.40;99.90;;;;;;5045872;28;20025;-31
2022/11/24 01:27:07;;;;;;;2.83;2.05;;;6.40;99.90;;;;;;5048514;28;20033;-30
2022/11/24 01:29:33;;;;;;;2.15;1.90;;;6.40;99.90;;;;;;5043054;28;20043;-30
2022/11/24 01:31:59;;;;;;;1.58;1.48;;;6.40;99.90;;;;;;5056244;28;20033;-33
2022/11/24 01:34:24;;;;;;;1.67;1.33;;;6.40;99.90;;;;;;5060824;28;20109;-31
2022/11/24 01:36:50;;;;;;;1.73;1.42;;;6.50;99.90;;;;;;5066833;28;20492;-30
2022/11/24 01:39:15;;;;;;;5.45;1.95;;;6.50;99.90;;;;;;5066444;28;20081;-30
2022/11/24 01:41:41;;;;;;;6.70;2.03;;;6.50;99.90;;;;;;5067059;28;20047;-32
2022/11/24 01:44:28;;;;;;;1.98;1.88;;;6.40;99.90;;;;;;5063864;28;20305;-33
2022/11/24 01:47:04;;;;;;;3.20;1.95;;;6.40;99.90;;;;;;5063374;28;20036;-31
2022/11/24 01:49:58;;;;;;;1.67;1.58;;;6.40;99.90;;;;;;5063148;28;20355;-31
2022/11/24 01:52:26;;;;;;;1.88;1.65;;;6.40;99.90;;;;;;5063008;28;20049;-30
2022/11/24 01:55:07;;;;;;;3.85;1.25;;;6.40;99.90;;;;;;5057328;28;20081;-30
2022/11/24 01:57:40;;;;;;;2.20;1.95;;;6.40;99.90;;;;;;5065668;28;20047;-30
2022/11/24 02:00:10;;;;;;;1.50;1.40;;;6.30;99.90;;;;;;5070957;28;20027;-31
2022/11/24 02:02:35;;;;;;;3.42;1.77;;;6.30;99.90;;;;;;5050932;28;20502;-40
2022/11/24 02:05:09;;;;;;;2.13;1.63;;;6.30;99.90;;;;;;5036970;28;20064;-39
2022/11/24 02:07:36;;;;;;;1.67;1.42;;;6.30;99.90;;;;;;5053168;28;20025;-39
2022/11/24 02:10:07;;;;;;;4.22;2.00;;;6.30;99.90;;;;;;5040216;28;20096;-40
2022/11/24 02:12:33;;;;;;;2.33;1.70;;;6.20;99.90;;;;;;5041194;28;20190;-40
2022/11/24 02:15:00;;;;;;;6.35;2.00;;;6.20;99.90;;;;;;5037913;28;20029;-41
2022/11/24 02:17:25;;;;;;;3.92;2.10;;;6.10;99.90;;;;;;5048254;28;20099;-39
2022/11/24 02:19:56;;;;;;;1.60;1.35;;;6.00;99.90;;;;;;5039084;28;20497;-40
2022/11/24 02:22:30;;;;;;;1.80;1.40;;;6.00;99.90;;;;;;5044272;28;20035;-40
2022/11/24 02:25:15;;;;;;;3.45;1.88;;;6.00;99.90;;;;;;5037515;28;20029;-40
2022/11/24 02:27:43;;;;;;;2.10;1.88;;;6.00;99.90;;;;;;5048477;28;20433;-40
2022/11/24 02:30:09;;;;;;;2.60;1.65;;;6.00;99.90;;;;;;5037090;28;20041;-38
2022/11/24 02:32:40;;;;;;;0.75;0.73;;;5.90;99.90;;;;;;5037290;28;20445;-41
2022/11/24 02:35:07;;;;;;;1.45;1.35;;;5.90;99.90;;;;;;5037778;28;20080;-40
2022/11/24 02:37:32;;;;;;;2.63;1.90;;;5.80;99.90;;;;;;5032807;28;20124;-39
2022/11/24 02:39:58;;;;;;;4.43;2.15;;;5.80;99.90;;;;;;5041493;28;20108;-38
2022/11/24 02:42:25;;;;;;;3.65;2.50;;;5.80;99.90;;;;;;5040979;28;20029;-39
2022/11/24 02:44:56;;;;;;;3.38;1.70;;;5.80;99.90;;;;;;5032623;28;20108;-40
2022/11/24 02:47:21;;;;;;;2.47;1.80;;;5.80;99.90;;;;;;5038632;28;20105;-39
2022/11/24 02:49:50;;;;;;;1.70;1.60;;;5.80;99.90;;;;;;5037200;28;20124;-38
2022/11/24 02:52:15;;;;;;;3.25;1.80;;;5.90;99.90;;;;;;5037131;28;20025;-40
2022/11/24 02:54:41;;;;;;;2.53;1.60;;;5.90;99.90;;;;;;5037284;28;20481;-40
2022/11/24 02:57:07;;;;;;;3.92;1.70;;;5.90;99.90;;;;;;5031732;28;20029;-40
2022/11/24 02:59:32;;;;;;;3.55;1.77;;;5.90;99.90;;;;;;5037709;28;20102;-37
2022/11/24 03:01:58;;;;;;;1.70;1.60;;;5.90;99.90;;;;;;5057680;28;20383;-39
2022/11/24 03:04:23;;;;;;;3.80;1.73;;;5.90;99.90;;;;;;5060577;28;20021;-40
2022/11/24 03:06:49;;;;;;;1.75;1.35;;;5.90;99.90;;;;;;5061224;28;20150;-40
2022/11/24 03:09:15;;;;;;;1.88;1.55;;;6.00;99.90;;;;;;5063677;28;20078;-40
2022/11/24 03:11:40;;;;;;;1.15;1.05;;;6.00;99.90;;;;;;5065282;28;20548;-40
2022/11/24 03:14:06;;;;;;;1.60;1.50;;;6.00;99.90;;;;;;5061453;28;20579;-40
2022/11/24 03:16:33;;;;;;;2.42;1.73;;;6.00;99.90;;;;;;5065317;28;20031;-41
2022/11/24 03:18:59;;;;;;;2.63;1.77;;;6.00;99.90;;;;;;5062006;28;20386;-37
2022/11/24 03:21:25;;;;;;;2.78;1.70;;;6.10;99.90;;;;;;5060838;28;20035;-41
2022/11/24 03:23:51;;;;;;;4.00;1.67;;;6.00;99.90;;;;;;5058121;28;20017;-41
2022/11/24 03:26:19;;;;;;;1.75;1.10;;;6.00;99.90;;;;;;5065472;28;20081;-40
2022/11/24 03:28:45;;;;;;;0.98;0.98;;;6.00;99.90;;;;;;5064584;28;20123;-40
2022/11/24 03:31:11;;;;;;;0.43;0.43;;;6.00;99.90;;;;;;5063731;28;20468;-40
2022/11/24 03:33:37;;;;;;;1.10;1.10;;;6.00;99.90;;;;;;5065019;28;20107;-40
2022/11/24 03:36:04;;;;;;;1.30;1.20;;;6.10;99.90;;;;;;5058976;28;20099;-41
2022/11/24 03:38:29;;;;;;;1.02;1.02;;;6.10;99.90;;;;;;5070333;28;20474;-36
2022/11/24 03:40:55;;;;;;;2.65;1.10;;;6.10;99.90;;;;;;5056776;28;20028;-41
2022/11/24 03:43:21;;;;;;;1.02;1.02;;;6.10;99.90;;;;;;5056931;28;20036;-40
2022/11/24 03:45:48;;;;;;;1.17;0.88;;;6.10;99.90;;;;;;5048839;28;20028;-36
2022/11/24 03:48:15;;;;;;;1.45;1.13;;;6.20;99.90;;;;;;5046600;28;20032;-38
2022/11/24 03:50:41;;;;;;;0.50;0.50;;;6.10;99.90;;;;;;5046013;28;20063;-39
2022/11/24 03:53:07;;;;;;;1.95;1.30;;;6.20;99.90;;;;;;5047514;28;20025;-40
2022/11/24 03:55:32;;;;;;;1.80;1.00;;;6.20;99.90;;;;;;5044457;28;20525;-39
2022/11/24 03:57:58;;;;;;;0.80;0.80;;;6.30;99.90;;;;;;5044396;28;20028;-40
2022/11/24 04:00:24;;;;;;;0.80;0.80;;;6.30;99.90;;;;;;5045832;28;20475;-36
2022/11/24 04:02:49;;;;;;;0.70;0.70;;;6.30;99.90;;;;;;5046190;28;20596;-40
2022/11/24 04:05:15;;;;;;;0.98;0.90;;;6.30;99.90;;;;;;5059462;28;20029;-36
2022/11/24 04:07:40;;;;;;;0.50;0.50;;;6.30;99.90;;;;;;5044425;28;20128;-40
2022/11/24 04:10:07;;;;;;;1.33;0.77;;;6.30;99.90;;;;;;5048192;28;20043;-37
2022/11/24 04:12:44;;;;;;;1.33;0.80;;;6.20;99.90;;;;;;5044707;28;20098;-36
2022/11/24 04:15:16;;;;;;;2.33;1.02;;;6.20;99.90;;;;;;5064190;28;20047;-40
2022/11/24 04:17:42;;;;;;;1.20;0.90;;;6.20;99.90;;;;;;5065787;28;20043;-39
2022/11/24 04:20:09;;;;;;;1.42;0.88;;;6.10;99.90;;;;;;5053773;28;20619;-39
2022/11/24 04:22:34;;;;;;;2.90;1.25;;;6.10;99.90;;;;;;5045474;28;20493;-37
2022/11/24 04:25:00;;;;;;;3.05;1.13;;;6.10;99.90;;;;;;5046306;28;20032;-36
2022/11/24 04:27:26;;;;;;;0.88;0.82;;;6.10;99.90;;;;;;5042425;28;20033;-36
2022/11/24 04:29:52;;;;;;;1.02;0.98;;;6.10;99.90;;;;;;5045081;28;20079;-40
2022/11/24 04:32:18;;;;;;;1.23;1.17;;;6.10;99.90;;;;;;5045811;28;20045;-36
2022/11/24 04:34:43;;;;;;;2.60;1.15;;;6.00;99.90;;;;;;5050089;28;20039;-39
2022/11/24 04:37:09;;;;;;;2.45;1.00;;;6.00;99.90;;;;;;5047288;28;20036;-40
2022/11/24 04:39:35;;;;;;;1.75;1.02;;;6.00;99.90;;;;;;5050077;28;20032;-37
2022/11/24 04:42:00;;;;;;;1.02;1.02;;;6.00;99.90;;;;;;5046955;28;20540;-40
2022/11/24 04:44:26;;;;;;;1.15;0.73;;;6.00;99.90;;;;;;5050130;28;20112;-34
2022/11/24 04:46:51;;;;;;;3.20;1.00;;;6.00;99.90;;;;;;5049030;28;20028;-38
2022/11/24 04:49:17;;;;;;;1.70;0.82;;;6.00;99.90;;;;;;5047950;28;20072;-37
2022/11/24 04:51:43;;;;;;;2.28;1.33;;;5.90;99.90;;;;;;5048489;28;20037;-37
2022/11/24 04:54:11;;;;;;;2.13;1.35;;;5.90;99.90;;;;;;5048037;28;20060;-40
2022/11/24 04:56:37;;;;;;;3.23;1.03;;;5.80;99.90;;;;;;5045516;28;20115;-40
2022/11/24 04:59:02;;;;;;;2.08;0.90;;;5.80;99.90;;;;;;5046897;28;20156;-35
2022/11/24 05:01:28;;;;;;;1.50;1.10;;;5.80;99.90;;;;;;5034987;28;20041;-40
2022/11/24 05:03:55;;;;;;;2.95;1.30;;;5.80;99.90;;;;;;5017973;28;20033;-40
2022/11/24 05:06:21;;;;;;;1.20;1.10;;;5.90;99.90;;;;;;5020990;28;20421;-34
2022/11/24 05:08:48;;;;;;;4.30;1.85;;;5.90;99.90;;;;;;5017432;28;20029;-36
2022/11/24 05:11:14;;;;;;;3.88;1.45;;;5.90;99.90;;;;;;5017342;28;20037;-40
2022/11/24 05:13:40;;;;;;;3.58;1.60;;;6.00;99.90;;;;;;5017021;28;20060;-35
2022/11/24 05:16:06;;;;;;;4.35;1.10;;;6.00;99.90;;;;;;5021734;28;20512;-40
2022/11/24 05:18:31;;;;;;;1.70;1.08;;;6.10;99.90;;;;;;5019803;28;20061;-39
2022/11/24 05:20:58;;;;;;;1.30;1.20;;;6.10;99.90;;;;;;5018720;28;20037;-39
2022/11/24 05:23:24;;;;;;;1.92;1.77;;;6.10;99.90;;;;;;5020851;28;20441;-37
2022/11/24 05:25:50;;;;;;;2.33;1.60;;;6.10;99.90;;;;;;5020246;28;20086;-36
2022/11/24 05:28:17;;;;;;;2.50;1.40;;;6.10;99.90;;;;;;5016977;28;20037;-38
2022/11/24 05:30:43;;;;;;;1.70;1.58;;;6.10;99.90;;;;;;5020483;28;20052;-35
2022/11/24 05:33:15;;;;;;;1.25;1.15;;;6.10;99.90;;;;;;5046532;28;20659;-39
2022/11/24 05:35:41;;;;;;;3.75;1.80;;;6.20;99.90;;;;;;5045529;28;20044;-40
2022/11/24 05:38:07;;;;;;;5.80;1.88;;;6.20;99.90;;;;;;5043257;28;20514;-40
2022/11/24 05:40:32;;;;;;;1.90;1.45;;;6.20;99.90;;;;;;5042930;28;20025;-38
2022/11/24 05:42:58;;;;;;;3.60;1.05;;;6.20;99.90;;;;;;5044461;28;20029;-37
2022/11/24 05:45:24;;;;;;;2.97;1.45;;;6.20;99.90;;;;;;5046144;28;20768;-39
2022/11/24 05:47:50;;;;;;;3.20;1.35;;;6.30;99.90;;;;;;5041834;28;20033;-38
2022/11/24 05:50:18;;;;;;;1.90;1.75;;;6.30;99.90;;;;;;5066470;28;20131;-37
2022/11/24 05:52:44;;;;;;;3.00;1.52;;;6.30;99.90;;;;;;5052698;28;20432;-41
2022/11/24 05:55:10;;;;;;;1.55;0.93;;;6.30;99.90;;;;;;5045004;28;20029;-36
2022/11/24 05:57:36;;;;;;;0.85;0.77;;;6.40;99.90;;;;;;5040560;28;20054;-34
2022/11/24 06:00:04;;;;;;;2.10;1.13;;;6.40;99.90;;;;;;5042988;28;20024;-38
2022/11/24 06:02:30;;;;;;;0.80;0.80;;;6.40;99.90;;;;;;5051392;28;20033;-39
2022/11/24 06:04:55;;;;;;;0.88;0.88;;;6.30;99.90;;;;;;5062794;28;20751;-38
2022/11/24 06:07:21;;;;;;;4.05;1.42;;;6.30;99.90;;;;;;5059873;28;20512;-39
2022/11/24 06:09:46;;;;;;;1.02;0.55;;;6.40;99.90;;;;;;5053947;28;20078;-36
2022/11/24 06:12:12;;;;;;;3.85;1.15;;;6.40;99.90;;;;;;5056878;28;20037;-40
2022/11/24 06:14:38;;;;;;;4.20;1.80;;;6.40;99.90;;;;;;5059348;28;20382;-39
2022/11/24 06:17:04;;;;;;;1.40;1.30;;;6.30;99.90;;;;;;5056001;28;20052;-40
2022/11/24 06:19:30;;;;;;;5.30;1.50;;;6.30;99.90;;;;;;5060682;28;20103;-39
2022/11/24 06:21:56;;;;;;;5.68;1.20;;;6.20;99.90;;;;;;5064831;28;20099;-39
2022/11/24 06:24:22;;;;;;;5.28;1.40;;;6.20;99.90;;;;;;5065533;28;20028;-40
2022/11/24 06:26:48;;;;;;;4.72;1.20;;;6.10;99.90;;;;;;5057358;28;20397;-40
2022/11/24 06:29:13;;;;;;;2.47;1.23;;;6.10;99.90;;;;;;5059479;28;20059;-39
2022/11/24 06:31:39;;;;;;;3.72;1.17;;;6.10;99.90;;;;;;5045501;28;20505;-40
2022/11/24 06:34:06;;;;;;;2.08;0.77;;;6.10;99.90;;;;;;5038211;28;20083;-40
2022/11/24 06:36:32;;;;;;;5.13;1.52;;;6.10;99.90;;;;;;5038438;28;20082;-38
2022/11/24 06:39:01;;;;;;;5.60;1.65;;;6.10;99.90;;;;;;5032953;28;20037;-36
2022/11/24 06:41:27;;;;;;;2.58;1.15;;;6.10;99.90;;;;;;5040460;28;20138;-38
2022/11/24 06:43:52;;;;;;;1.10;1.05;;;6.10;99.90;;;;;;5037882;28;20105;-39
2022/11/24 06:46:18;;;;;;;5.00;1.77;;;6.00;99.90;;;;;;5040820;28;20034;-39
2022/11/24 06:48:44;;;;;;;3.38;1.70;;;6.00;99.90;;;;;;5038926;28;20475;-40
2022/11/24 06:51:13;;;;;;;4.72;2.00;;;5.90;99.90;;;;;;5040417;28;20027;-36
2022/11/24 06:53:40;;;;;;;7.93;2.30;;;5.90;99.90;;;;;;5038246;28;20036;-39
2022/11/24 06:56:11;;;;;;;6.03;1.58;;;5.90;99.90;;;;;;5036387;28;20039;-39
2022/11/24 06:58:41;;;;;;;13.07;1.52;;;5.90;99.90;;;;;;5038491;28;20035;-38
2022/11/24 07:01:07;;;;;;;3.60;1.80;;;5.80;99.90;;;;;;5033022;28;20132;-38
2022/11/24 07:03:32;;;;;;;2.95;2.08;;;5.80;99.90;;;;;;5030895;28;20105;-40
2022/11/24 07:05:58;;;;;;;2.05;1.02;;;5.80;99.90;;;;;;5033754;28;20116;-39
2022/11/24 07:08:24;;;;;;;1.38;1.17;;;5.80;99.90;;;;;;5033213;28;20037;-40
2022/11/24 07:10:53;;;;;;;4.47;2.28;;;5.70;99.90;;;;;;5036527;28;20029;-40
2022/11/24 07:13:19;;;;;;;3.10;1.15;;;5.70;99.90;;;;;;5032772;28;20120;-40
2022/11/24 07:15:45;;;;;;;3.88;1.50;;;5.60;99.90;;;;;;5035150;28;20037;-40
2022/11/24 07:18:11;;;;;;;4.30;1.65;;;5.60;99.90;;;;;;5034780;28;20061;-40
2022/11/24 07:20:37;;;;;;;3.35;1.52;;;5.70;99.90;;;;;;5034373;28;20089;-39
2022/11/24 07:23:02;;;;;;;3.20;1.63;;;5.70;99.90;;;;;;5039133;28;20022;-40
2022/11/24 07:25:28;;;;;;;2.58;1.30;;;5.70;99.90;;;;;;5038934;28;20025;-40
2022/11/24 07:27:58;;;;;;;3.50;1.58;;;5.80;99.90;;;;;;5043723;28;20029;-40
2022/11/24 07:30:25;;;;;;;5.35;1.58;;;5.80;99.90;;;;;;5045678;28;20375;-39
2022/11/24 07:32:57;;;;;;;1.90;1.20;;;5.80;99.90;;;;;;5043248;28;20067;-37
2022/11/24 07:35:22;;;;;;;2.35;1.85;;;5.90;99.90;;;;;;5041301;28;20060;-40
2022/11/24 07:37:48;;;;;;;8.00;2.08;;;6.00;99.90;;;;;;5037477;28;20029;-41
2022/11/24 07:40:13;;;;;;;1.20;1.17;;;6.10;99.90;;;;;;5042030;28;20029;-39
2022/11/24 07:42:39;;;;;;;2.22;1.25;;;6.20;99.90;;;;;;5035809;28;20056;-39
2022/11/24 07:45:05;;;;;;;2.95;1.45;;;6.30;99.90;;;;;;5036142;28;20025;-39
2022/11/24 07:47:31;;;;;;;1.25;0.77;;;6.30;99.90;;;;;;5034837;28;20069;-38
2022/11/24 07:49:56;;;;;;;1.98;1.35;;;6.40;99.90;;;;;;5038967;28;20072;-37
2022/11/24 07:52:25;;;;;;;1.40;0.65;;;6.50;99.90;;;;;;5034133;28;20549;-38
2022/11/24 07:54:51;;;;;;;9.63;1.13;;;6.60;99.90;;;;;;5042418;28;20103;-40
2022/11/24 07:57:17;;;;;;;5.75;1.17;;;6.70;99.90;;;;;;5040938;28;20064;-40
2022/11/24 07:59:42;;;;;;;1.42;1.30;;;6.80;99.90;;;;;;5040042;28;20053;-39
2022/11/24 08:02:11;;;;;;;1.35;1.20;;;6.90;99.90;;;;;;5040537;28;20041;-40
2022/11/24 08:04:37;;;;;;;3.83;1.45;;;6.90;99.90;;;;;;5044677;28;20018;-40
2022/11/24 08:07:02;;;;;;;2.63;0.95;;;7.00;99.90;;;;;;5041101;28;20021;-37
2022/11/24 08:09:28;;;;;;;1.77;0.80;;;7.00;99.90;;;;;;5038612;28;20112;-37
2022/11/24 08:11:54;;;;;;;5.43;1.48;;;7.10;99.90;;;;;;5042795;28;20041;-40
2022/11/24 08:14:19;;;;;;;1.60;0.90;;;7.20;99.90;;;;;;5038648;28;20387;-40
2022/11/24 08:16:45;;;;;;;0.80;0.68;;;7.20;99.90;;;;;;5041983;28;20044;-40
2022/11/24 08:19:10;;;;;;;0.95;0.90;;;7.20;99.90;;;;;;5046194;28;20516;-40
2022/11/24 08:21:37;;;;;;;2.75;0.90;;;7.30;99.90;;;;;;5042038;28;20094;-40
2022/11/24 08:24:03;;;;;;;13.07;1.38;;;7.30;99.90;;;;;;5042973;28;20014;-40
2022/11/24 08:26:29;;;;;;;2.90;1.00;;;7.40;99.90;;;;;;5041730;28;20039;-39
2022/11/24 08:28:58;;;;;;;2.05;1.42;;;7.40;99.90;;;;;;5042895;28;20037;-39
2022/11/24 08:31:31;;;;;;;3.97;1.10;;;7.50;99.90;;;;;;5040731;28;20415;-39
2022/11/24 08:33:57;;;;;;;2.15;0.95;;;7.50;99.90;;;;;;5043882;28;20033;-39
2022/11/24 08:36:23;;;;;;;4.45;1.58;;;7.50;99.90;;;;;;5043951;28;20033;-39
2022/11/24 08:38:57;;;;;;;1.20;0.98;;;7.60;99.90;;;;;;5041577;28;20463;-39
2022/11/24 08:41:24;;;;;;;2.30;0.68;;;7.60;99.90;;;;;;5041657;28;20029;-40
2022/11/24 08:43:49;;;;;;;1.23;0.90;;;7.60;99.90;;;;;;5039147;28;20033;-40
2022/11/24 08:46:17;;;;;;;1.35;1.08;;;7.60;99.90;;;;;;5047697;28;20071;-40
2022/11/24 08:48:50;;;;;;;4.97;1.50;;;7.70;99.90;;;;;;5041004;28;20516;-40
2022/11/24 08:51:18;;;;;;;3.38;1.20;;;7.80;99.90;;;;;;5047034;28;20485;-39
2022/11/24 08:53:44;;;;;;;;;;;8.00;99.90;;;;;;5038724;28;20041;-40
2022/11/24 08:56:11;;;;;;;2.38;1.20;;;8.00;99.90;;;;;;5043282;28;20011;-39
2022/11/24 08:58:38;;;;;;;5.35;1.60;;;8.10;99.90;;;;;;5036964;28;20025;-38
2022/11/24 09:01:06;;;;;;;0.50;0.50;;;8.20;99.90;;;;;;5040491;28;20033;-40
2022/11/24 09:03:32;;;;;;;0.80;0.80;;;8.30;99.90;;;;;;5042625;28;20020;-40
2022/11/24 09:05:57;;;;;;;3.78;1.52;;;8.30;99.90;;;;;;5043010;28;20066;-40
2022/11/24 09:08:23;;;;;;;1.20;1.10;;;8.30;99.90;;;;;;5042537;28;20036;-39
2022/11/24 09:10:48;;;;;;;2.78;1.30;;;8.30;99.90;;;;;;5041760;28;20496;-38
2022/11/24 09:13:14;;;;;;;2.20;1.15;;;8.20;99.90;;;;;;5036986;28;20532;-38
2022/11/24 09:15:40;;;;;;;4.38;1.00;;;8.20;99.90;;;;;;5042869;28;20470;-39
2022/11/24 09:18:05;;;;;;;1.55;0.63;;;8.20;99.90;;;;;;5042009;28;20047;-36
2022/11/24 09:20:31;;;;;;;2.17;0.80;;;8.20;99.90;;;;;;5045227;28;20036;-40
2022/11/24 09:22:56;;;;;;;3.13;1.00;;;8.20;99.90;;;;;;5041899;28;20541;-39
2022/11/24 09:25:25;;;;;;;2.33;1.10;;;8.10;99.90;;;;;;5044742;28;20390;-40
2022/11/24 09:27:50;;;;;;;;;;;8.00;99.90;;;;;;5042655;28;20510;-40
2022/11/24 09:30:16;;;;;;;3.40;1.70;;;7.90;99.90;;;;;;5038672;28;19956;-37
2022/11/24 09:32:42;;;;;;;2.17;1.20;;;7.80;99.90;;;;;;5068614;28;20029;-39
2022/11/24 09:35:08;;;;;;;1.95;1.05;;;7.80;99.90;;;;;;5063975;28;20029;-40
2022/11/24 09:37:34;;;;;;;2.65;1.10;;;7.80;99.90;;;;;;5068050;28;20032;-40
2022/11/24 09:40:00;;;;;;;1.55;0.73;;;7.80;99.90;;;;;;5066868;28;20070;-40
2022/11/24 09:42:53;;;;;;;0.70;0.70;;;7.80;99.90;;;;;;5061530;28;20048;-40
2022/11/24 09:45:46;;;;;;;0.43;0.43;;;7.70;99.90;;;;;;5062108;28;20473;-40
2022/11/24 09:48:21;;;;;;;1.13;0.90;;;7.60;99.90;;;;;;5047035;28;20061;-40
2022/11/24 09:50:48;;;;;;;1.23;0.68;;;7.50;99.90;;;;;;5066746;28;20029;-40
2022/11/24 09:53:23;;;;;;;0.95;0.90;;;7.50;99.90;;;;;;5064537;28;20451;-40
2022/11/24 09:55:50;;;;;;;1.85;0.90;;;7.40;99.90;;;;;;5062764;28;20024;-38
2022/11/24 09:58:20;;;;;;;1.60;0.68;;;7.30;99.90;;;;;;5067352;28;20400;-37
2022/11/24 10:00:49;;;;;;;0.90;0.80;;;7.20;99.90;;;;;;5064742;28;20063;-39
2022/11/24 10:03:23;;;;;;;2.85;1.00;;;7.20;99.90;;;;;;5063398;28;20060;-40
2022/11/24 10:05:50;;;;;;;0.70;0.70;;;7.30;99.90;;;;;;5059665;28;20036;-39
2022/11/24 10:08:39;;;;;;;0.50;0.50;;;7.30;99.90;;;;;;5073016;28;20056;-38
2022/11/24 10:11:12;;;;;;;0.68;0.50;;;7.30;99.90;;;;;;5068528;28;20040;-39
2022/11/24 10:13:49;;;;;;;0.80;0.80;;;7.30;99.90;;;;;;5068979;28;20535;-37
2022/11/24 10:16:24;;;;;;;0.65;0.60;;;7.30;99.90;;;;;;5064710;28;20028;-39
2022/11/24 10:19:29;;;;;;;0.52;0.40;;;7.20;99.90;;;;;;5063170;28;20103;-39
2022/11/24 10:22:11;;;;;;;0.77;0.73;;;7.20;99.90;;;;;;5061512;28;20103;-40
2022/11/24 10:24:45;;;;;;;2.00;0.93;;;7.20;99.90;;;;;;5062697;28;20025;-40
2022/11/24 10:27:21;;;;;;;3.45;0.68;;;7.20;99.90;;;;;;5066006;28;20037;-38
2022/11/24 10:29:51;;;;;;;2.08;1.00;;;7.20;99.90;;;;;;5060283;28;20568;-39
2022/11/24 10:32:22;;;;;;;0.90;0.85;;;7.20;99.90;;;;;;5065654;28;20041;-39
2022/11/24 10:34:51;;;;;;;1.25;0.80;;;7.20;99.90;;;;;;5066796;28;20124;-39
2022/11/24 10:37:20;;;;;;;1.95;1.15;;;7.20;99.90;;;;;;5058035;28;20040;-39
2022/11/24 10:40:13;;;;;;;1.08;0.98;;;7.20;99.90;;;;;;5071159;28;20016;-39
2022/11/24 10:42:39;;;;;;;1.10;1.02;;;7.20;99.90;;;;;;5058974;28;20032;-39
2022/11/24 10:45:16;;;;;;;1.08;0.95;;;7.30;99.90;;;;;;5064335;28;20540;-40
2022/11/24 10:47:43;;;;;;;3.50;0.70;;;7.30;99.90;;;;;;5084542;28;20527;-40
2022/11/24 10:50:22;;;;;;;4.55;0.85;;;7.40;99.90;;;;;;5065930;28;20056;-39
2022/11/24 10:53:14;;;;;;;0.95;0.45;;;7.40;99.90;;;;;;5066501;28;20098;-39
2022/11/24 10:55:55;;;;;;;0.93;0.77;;;7.40;99.90;;;;;;5068066;28;20409;-39
2022/11/24 10:58:37;;;;;;;1.55;0.50;;;7.40;99.90;;;;;;5068367;28;20062;-40
2022/11/24 11:01:12;;;;;;;3.15;0.93;;;7.40;99.90;;;;;;5069021;28;20396;-39
2022/11/24 11:03:58;;;;;;;1.35;0.95;;;7.40;99.90;;;;;;5074114;28;20021;-39
2022/11/24 11:06:25;;;;;;;0.90;0.90;;;7.40;99.90;;;;;;5066764;28;20082;-39
2022/11/24 11:09:24;;;;;;;0.85;0.60;;;7.40;99.90;;;;;;5065104;28;20075;-39
2022/11/24 11:11:52;;;;;;;;;;;7.40;99.90;;;;;;5054826;28;20953;-40
2022/11/24 11:14:32;;;;;;;0.95;0.80;;;7.20;99.90;;;;;;5068408;28;19963;-40
2022/11/24 11:16:58;;;;;;;1.55;0.85;;;7.20;99.90;;;;;;5065993;28;20043;-40
2022/11/24 11:19:42;;;;;;;3.88;0.63;;;7.20;99.90;;;;;;5071416;28;20032;-40
2022/11/24 11:22:11;;;;;;;1.20;1.10;;;7.20;99.90;;;;;;5068856;28;20031;-40
2022/11/24 11:24:38;;;;;;;;;;;7.20;99.90;;;;;;5065141;28;20111;-40
2022/11/24 11:27:15;;;;;;;1.65;0.73;;;7.30;99.90;;;;;;5070848;28;20545;-40
2022/11/24 11:29:41;;;;;;;1.77;0.83;;;7.40;99.90;;;;;;5066479;28;20028;-40
2022/11/24 11:32:27;;;;;;;1.13;0.98;;;7.50;99.90;;;;;;5068295;28;20293;-40
2022/11/24 11:34:55;;;;;;;0.40;0.40;;;7.50;99.90;;;;;;5102134;28;20032;-39
2022/11/24 11:37:27;;;;;;;0.85;0.85;;;7.50;99.90;;;;;;5064082;28;20035;-37
2022/11/24 11:39:54;;;;;;;0.63;0.63;;;7.50;99.90;;;;;;5071262;28;20036;-40
2022/11/24 11:42:51;;;;;;;0.80;0.80;;;7.50;99.90;;;;;;5070302;28;20025;-39
2022/11/24 11:45:33;;;;;;;0.70;0.70;;;7.60;99.90;;;;;;5069128;28;20032;-36
2022/11/24 11:48:04;;;;;;;0.73;0.73;;;7.70;99.90;;;;;;5069455;28;20035;-39
2022/11/24 11:50:39;;;;;;;1.00;1.00;;;7.70;99.90;;;;;;5068077;28;20130;-39
2022/11/24 11:53:23;;;;;;;0.73;0.73;;;7.70;99.90;;;;;;5069134;28;20059;-39
2022/11/24 11:56:19;;;;;;;0.60;0.60;;;7.70;99.90;;;;;;5066013;28;20482;-40
2022/11/24 11:59:15;;;;;;;0.60;0.60;;;7.80;99.90;;;;;;5070467;28;20104;-40
2022/11/24 12:02:09;;;;;;;0.57;0.57;;;8.00;99.90;;;;;;5066324;28;20075;-38
2022/11/24 12:04:54;;;;;;;0.85;0.70;;;8.10;99.90;;;;;;5070616;28;20032;-37
2022/11/24 12:07:53;;;;;;;0.50;0.50;;;8.20;99.90;;;;;;5064121;28;20549;-40
2022/11/24 12:10:27;;;;;;;2.83;0.80;;;8.10;99.90;;;;;;5064750;28;20025;-40
2022/11/24 12:12:58;;;;;;;0.57;0.50;;;8.10;99.90;;;;;;5074157;28;20059;-40
2022/11/24 12:15:35;;;;;;;1.00;0.70;;;7.80;99.90;;;;;;5067103;28;20066;-39
2022/11/24 12:18:27;;;;;;;1.20;0.73;;;7.80;99.90;;;;;;5067324;28;20552;-40
2022/11/24 12:21:17;;;;;;;0.77;0.77;;;7.80;99.90;;;;;;5066911;28;20074;-38
2022/11/24 12:23:55;;;;;;;0.93;0.80;;;7.80;99.90;;;;;;5064928;28;20013;-40
2022/11/24 12:26:24;;;;;;;0.73;0.73;;;7.80;99.90;;;;;;5067453;28;20521;-40
2022/11/24 12:29:08;;;;;;;;;;;7.90;99.90;;;;;;5068368;28;20490;-40
2022/11/24 12:32:06;;;;;;;0.75;0.68;;;7.90;99.90;;;;;;5062583;28;19923;-40
2022/11/24 12:34:37;;;;;;;0.93;0.90;;;8.10;99.90;;;;;;5066380;28;20497;-40
2022/11/24 12:37:35;;;;;;;0.88;0.50;;;8.30;99.90;;;;;;5067298;28;20067;-40
2022/11/24 12:40:03;;;;;;;0.60;0.60;;;8.20;99.90;;;;;;5046914;28;20067;-40
2022/11/24 12:43:10;;;;;;;1.00;0.88;;;8.20;99.90;;;;;;5066673;28;20027;-37
2022/11/24 12:45:47;;;;;;;0.60;0.60;;;8.20;99.90;;;;;;5061328;28;20051;-38
2022/11/24 12:48:35;;;;;;;0.70;0.70;;;8.20;99.90;;;;;;5068323;28;20020;-40
2022/11/24 12:51:03;;;;;;;1.35;0.50;;;8.20;99.90;;;;;;5065900;28;20040;-38
2022/11/24 12:53:32;;;;;;;2.50;1.17;;;8.20;99.90;;;;;;5063563;28;20466;-39
2022/11/24 12:56:08;;;;;;;1.20;0.68;;;8.20;99.90;;;;;;5062624;28;20040;-40
2022/11/24 12:58:57;;;;;;;0.95;0.75;;;8.10;99.90;;;;;;5067626;28;20091;-39
2022/11/24 13:01:25;;;;;;;;;;;8.10;99.90;;;;;;5060614;28;20426;-38
2022/11/24 13:04:15;;;;;;;0.77;0.50;;;8.10;99.90;;;;;;5069060;28;20004;-39
2022/11/24 13:06:47;;;;;;;3.25;0.98;;;8.10;99.90;;;;;;5066542;28;20060;-39
2022/11/24 13:09:13;;;;;;;1.02;0.90;;;8.10;99.90;;;;;;5069048;28;20039;-38
2022/11/24 13:12:03;;;;;;;1.23;1.00;;;8.10;99.90;;;;;;5068465;28;20029;-39